sensor_id;sensor_type;location;lat;lon;timestamp;temperature;humidity
37678;DHT22;23517;50.390;8.616;2022-07-23T00:00:19;20.30;60.60
37678;DHT22;23517;50.390;8.616;2022-07-23T00:02:47;20.30;62.10
37678;DHT22;23517;50.390;8.616;2022-07-23T00:05:14;20.30;64.10
37678;DHT22;23517;50.390;8.616;2022-07-23T00:07:41;20.20;65.10
37678;DHT22;23517;50.390;8.616;2022-07-23T00:10:08;20.20;65.30
37678;DHT22;23517;50.390;8.616;2022-07-23T00:12:36;20.10;66.20
37678;DHT22;23517;50.390;8.616;2022-07-23T00:15:16;20.00;67.90
37678;DHT22;23517;50.390;8.616;2022-07-23T00:17:43;19.90;68.10
37678;DHT22;23517;50.390;8.616;2022-07-23T00:20:10;19.90;67.30
37678;DHT22;23517;50.390;8.616;2022-07-23T00:22:45;19.80;66.70
37678;DHT22;23517;50.390;8.616;2022-07-23T00:25:16;19.90;66.90
37678;DHT22;23517;50.390;8.616;2022-07-23T00:28:00;19.80;66.70
37678;DHT22;23517;50.390;8.616;2022-07-23T00:30:28;19.70;66.80
37678;DHT22;23517;50.390;8.616;2022-07-23T00:32:58;19.60;67.40
37678;DHT22;23517;50.390;8.616;2022-07-23T00:35:29;19.60;67.80
37678;DHT22;23517;50.390;8.616;2022-07-23T00:37:58;19.60;66.70
37678;DHT22;23517;50.390;8.616;2022-07-23T00:40:27;19.40;67.40
37678;DHT22;23517;50.390;8.616;2022-07-23T00:42:55;19.40;67.90
37678;DHT22;23517;50.390;8.616;2022-07-23T00:45:22;19.30;67.90
37678;DHT22;23517;50.390;8.616;2022-07-23T00:47:49;19.20;68.10
37678;DHT22;23517;50.390;8.616;2022-07-23T00:50:15;19.10;68.30
37678;DHT22;23517;50.390;8.616;2022-07-23T00:52:42;19.20;68.60
37678;DHT22;23517;50.390;8.616;2022-07-23T00:55:10;19.20;67.80
37678;DHT22;23517;50.390;8.616;2022-07-23T00:57:39;19.10;68.80
37678;DHT22;23517;50.390;8.616;2022-07-23T01:00:08;19.20;67.50
37678;DHT22;23517;50.390;8.616;2022-07-23T01:02:38;19.20;67.30
37678;DHT22;23517;50.390;8.616;2022-07-23T01:05:06;19.20;67.50
37678;DHT22;23517;50.390;8.616;2022-07-23T01:07:34;19.20;67.50
37678;DHT22;23517;50.390;8.616;2022-07-23T01:10:03;19.20;67.20
37678;DHT22;23517;50.390;8.616;2022-07-23T01:12:32;19.10;67.80
37678;DHT22;23517;50.390;8.616;2022-07-23T01:15:00;19.00;68.10
37678;DHT22;23517;50.390;8.616;2022-07-23T01:17:27;19.00;67.60
37678;DHT22;23517;50.390;8.616;2022-07-23T01:19:54;19.00;68.20
37678;DHT22;23517;50.390;8.616;2022-07-23T01:22:21;19.00;67.70
37678;DHT22;23517;50.390;8.616;2022-07-23T01:24:48;19.10;67.40
37678;DHT22;23517;50.390;8.616;2022-07-23T01:27:15;19.10;67.30
37678;DHT22;23517;50.390;8.616;2022-07-23T01:29:45;19.00;68.00
37678;DHT22;23517;50.390;8.616;2022-07-23T01:32:12;19.00;67.70
37678;DHT22;23517;50.390;8.616;2022-07-23T01:34:39;18.90;68.80
37678;DHT22;23517;50.390;8.616;2022-07-23T01:37:07;18.90;68.10
37678;DHT22;23517;50.390;8.616;2022-07-23T01:39:34;18.80;68.50
37678;DHT22;23517;50.390;8.616;2022-07-23T01:42:00;18.90;68.10
37678;DHT22;23517;50.390;8.616;2022-07-23T01:44:27;18.90;67.50
37678;DHT22;23517;50.390;8.616;2022-07-23T01:46:55;18.90;68.00
37678;DHT22;23517;50.390;8.616;2022-07-23T01:49:22;19.00;67.30
37678;DHT22;23517;50.390;8.616;2022-07-23T01:51:49;18.90;67.20
37678;DHT22;23517;50.390;8.616;2022-07-23T01:54:30;18.90;67.60
37678;DHT22;23517;50.390;8.616;2022-07-23T01:56:58;18.80;67.90
37678;DHT22;23517;50.390;8.616;2022-07-23T01:59:27;18.90;67.50
37678;DHT22;23517;50.390;8.616;2022-07-23T02:01:54;19.00;67.30
37678;DHT22;23517;50.390;8.616;2022-07-23T02:04:22;19.00;67.00
37678;DHT22;23517;50.390;8.616;2022-07-23T02:06:51;19.10;66.60
37678;DHT22;23517;50.390;8.616;2022-07-23T02:09:18;19.00;66.30
37678;DHT22;23517;50.390;8.616;2022-07-23T02:11:45;19.00;66.50
37678;DHT22;23517;50.390;8.616;2022-07-23T02:14:12;19.00;66.10
37678;DHT22;23517;50.390;8.616;2022-07-23T02:16:39;18.90;66.50
37678;DHT22;23517;50.390;8.616;2022-07-23T02:19:06;18.90;66.90
37678;DHT22;23517;50.390;8.616;2022-07-23T02:21:33;18.80;67.00
37678;DHT22;23517;50.390;8.616;2022-07-23T02:24:00;18.80;67.60
37678;DHT22;23517;50.390;8.616;2022-07-23T02:26:27;18.70;67.60
37678;DHT22;23517;50.390;8.616;2022-07-23T02:28:53;18.70;68.10
37678;DHT22;23517;50.390;8.616;2022-07-23T02:31:25;18.50;68.80
37678;DHT22;23517;50.390;8.616;2022-07-23T02:33:52;18.40;69.70
37678;DHT22;23517;50.390;8.616;2022-07-23T02:36:19;18.40;69.60
37678;DHT22;23517;50.390;8.616;2022-07-23T02:38:46;18.40;70.00
37678;DHT22;23517;50.390;8.616;2022-07-23T02:41:13;18.40;69.70
37678;DHT22;23517;50.390;8.616;2022-07-23T02:43:40;18.30;69.90
37678;DHT22;23517;50.390;8.616;2022-07-23T02:46:07;18.30;69.70
37678;DHT22;23517;50.390;8.616;2022-07-23T02:48:34;18.30;70.00
37678;DHT22;23517;50.390;8.616;2022-07-23T02:51:01;18.20;70.50
37678;DHT22;23517;50.390;8.616;2022-07-23T02:53:27;18.20;70.30
37678;DHT22;23517;50.390;8.616;2022-07-23T02:55:54;18.20;70.70
37678;DHT22;23517;50.390;8.616;2022-07-23T02:58:21;18.20;70.30
37678;DHT22;23517;50.390;8.616;2022-07-23T03:00:48;18.10;71.10
37678;DHT22;23517;50.390;8.616;2022-07-23T03:03:14;18.00;71.90
37678;DHT22;23517;50.390;8.616;2022-07-23T03:05:41;17.90;72.70
37678;DHT22;23517;50.390;8.616;2022-07-23T03:08:08;17.90;72.50
37678;DHT22;23517;50.390;8.616;2022-07-23T03:10:35;18.00;71.70
37678;DHT22;23517;50.390;8.616;2022-07-23T03:13:01;18.00;71.90
37678;DHT22;23517;50.390;8.616;2022-07-23T03:15:29;17.90;72.40
37678;DHT22;23517;50.390;8.616;2022-07-23T03:17:56;17.90;72.80
37678;DHT22;23517;50.390;8.616;2022-07-23T03:20:23;17.90;72.80
37678;DHT22;23517;50.390;8.616;2022-07-23T03:22:49;17.90;72.60
37678;DHT22;23517;50.390;8.616;2022-07-23T03:25:16;17.90;72.40
37678;DHT22;23517;50.390;8.616;2022-07-23T03:27:43;17.90;72.40
37678;DHT22;23517;50.390;8.616;2022-07-23T03:30:12;17.90;72.10
37678;DHT22;23517;50.390;8.616;2022-07-23T03:32:38;17.90;72.90
37678;DHT22;23517;50.390;8.616;2022-07-23T03:35:05;17.90;73.00
37678;DHT22;23517;50.390;8.616;2022-07-23T03:37:35;17.90;72.90
37678;DHT22;23517;50.390;8.616;2022-07-23T03:40:02;17.80;73.20
37678;DHT22;23517;50.390;8.616;2022-07-23T03:42:29;17.80;72.80
37678;DHT22;23517;50.390;8.616;2022-07-23T03:44:55;17.80;73.20
37678;DHT22;23517;50.390;8.616;2022-07-23T03:47:22;17.80;73.00
37678;DHT22;23517;50.390;8.616;2022-07-23T03:49:49;17.80;73.00
37678;DHT22;23517;50.390;8.616;2022-07-23T03:52:16;17.80;71.90
37678;DHT22;23517;50.390;8.616;2022-07-23T03:54:43;17.80;71.90
37678;DHT22;23517;50.390;8.616;2022-07-23T03:57:10;17.80;71.30
37678;DHT22;23517;50.390;8.616;2022-07-23T03:59:37;17.80;71.30
37678;DHT22;23517;50.390;8.616;2022-07-23T04:02:03;17.80;71.10
37678;DHT22;23517;50.390;8.616;2022-07-23T04:04:30;17.80;70.80
37678;DHT22;23517;50.390;8.616;2022-07-23T04:06:57;17.80;70.40
37678;DHT22;23517;50.390;8.616;2022-07-23T04:09:23;17.80;70.50
37678;DHT22;23517;50.390;8.616;2022-07-23T04:11:50;17.80;70.10
37678;DHT22;23517;50.390;8.616;2022-07-23T04:14:17;17.80;69.30
37678;DHT22;23517;50.390;8.616;2022-07-23T04:16:44;17.80;68.40
37678;DHT22;23517;50.390;8.616;2022-07-23T04:19:10;17.70;68.00
37678;DHT22;23517;50.390;8.616;2022-07-23T04:21:37;17.80;67.40
37678;DHT22;23517;50.390;8.616;2022-07-23T04:24:04;17.90;67.40
37678;DHT22;23517;50.390;8.616;2022-07-23T04:26:31;17.90;67.00
37678;DHT22;23517;50.390;8.616;2022-07-23T04:28:58;17.90;66.90
37678;DHT22;23517;50.390;8.616;2022-07-23T04:31:25;17.90;67.40
37678;DHT22;23517;50.390;8.616;2022-07-23T04:33:51;17.90;65.80
37678;DHT22;23517;50.390;8.616;2022-07-23T04:36:18;17.90;66.10
37678;DHT22;23517;50.390;8.616;2022-07-23T04:38:45;17.90;65.90
37678;DHT22;23517;50.390;8.616;2022-07-23T04:41:18;18.00;65.90
37678;DHT22;23517;50.390;8.616;2022-07-23T04:43:44;18.10;66.20
37678;DHT22;23517;50.390;8.616;2022-07-23T04:46:11;18.20;64.30
37678;DHT22;23517;50.390;8.616;2022-07-23T04:48:38;18.30;64.30
37678;DHT22;23517;50.390;8.616;2022-07-23T04:51:05;18.20;64.10
37678;DHT22;23517;50.390;8.616;2022-07-23T04:53:32;18.30;62.20
37678;DHT22;23517;50.390;8.616;2022-07-23T04:55:59;18.20;62.30
37678;DHT22;23517;50.390;8.616;2022-07-23T04:58:26;18.30;62.10
37678;DHT22;23517;50.390;8.616;2022-07-23T05:00:52;18.50;59.90
37678;DHT22;23517;50.390;8.616;2022-07-23T05:03:19;18.50;59.20
37678;DHT22;23517;50.390;8.616;2022-07-23T05:05:50;18.60;59.70
37678;DHT22;23517;50.390;8.616;2022-07-23T05:08:17;18.60;59.20
37678;DHT22;23517;50.390;8.616;2022-07-23T05:10:44;18.70;58.80
37678;DHT22;23517;50.390;8.616;2022-07-23T05:13:11;18.80;58.00
37678;DHT22;23517;50.390;8.616;2022-07-23T05:15:37;18.80;57.10
37678;DHT22;23517;50.390;8.616;2022-07-23T05:18:04;19.00;56.90
37678;DHT22;23517;50.390;8.616;2022-07-23T05:20:31;19.20;56.70
37678;DHT22;23517;50.390;8.616;2022-07-23T05:22:57;19.30;56.70
37678;DHT22;23517;50.390;8.616;2022-07-23T05:25:24;19.40;52.20
37678;DHT22;23517;50.390;8.616;2022-07-23T05:27:51;19.50;53.50
37678;DHT22;23517;50.390;8.616;2022-07-23T05:30:18;19.70;53.00
37678;DHT22;23517;50.390;8.616;2022-07-23T05:32:45;19.80;52.80
37678;DHT22;23517;50.390;8.616;2022-07-23T05:35:11;19.70;51.80
37678;DHT22;23517;50.390;8.616;2022-07-23T05:37:38;19.70;52.60
37678;DHT22;23517;50.390;8.616;2022-07-23T05:40:07;19.90;51.60
37678;DHT22;23517;50.390;8.616;2022-07-23T05:42:39;20.00;50.60
37678;DHT22;23517;50.390;8.616;2022-07-23T05:45:07;20.40;50.10
37678;DHT22;23517;50.390;8.616;2022-07-23T05:47:46;20.70;48.80
37678;DHT22;23517;50.390;8.616;2022-07-23T05:50:14;21.00;48.20
37678;DHT22;23517;50.390;8.616;2022-07-23T05:52:42;21.50;46.10
37678;DHT22;23517;50.390;8.616;2022-07-23T05:55:10;21.80;43.30
37678;DHT22;23517;50.390;8.616;2022-07-23T05:57:39;22.30;42.10
37678;DHT22;23517;50.390;8.616;2022-07-23T06:00:08;23.30;40.00
37678;DHT22;23517;50.390;8.616;2022-07-23T06:05:05;25.10;34.40
37678;DHT22;23517;50.390;8.616;2022-07-23T06:07:34;25.70;33.60
37678;DHT22;23517;50.390;8.616;2022-07-23T06:10:03;26.60;31.50
37678;DHT22;23517;50.390;8.616;2022-07-23T06:12:31;26.30;31.80
37678;DHT22;23517;50.390;8.616;2022-07-23T06:14:58;26.40;32.00
37678;DHT22;23517;50.390;8.616;2022-07-23T06:17:24;26.00;32.60
37678;DHT22;23517;50.390;8.616;2022-07-23T06:19:52;25.60;33.00
37678;DHT22;23517;50.390;8.616;2022-07-23T06:22:20;25.20;34.30
37678;DHT22;23517;50.390;8.616;2022-07-23T06:24:47;25.70;33.50
37678;DHT22;23517;50.390;8.616;2022-07-23T06:27:15;26.60;32.40
37678;DHT22;23517;50.390;8.616;2022-07-23T06:29:41;26.80;31.00
37678;DHT22;23517;50.390;8.616;2022-07-23T06:32:09;27.00;31.10
37678;DHT22;23517;50.390;8.616;2022-07-23T06:34:36;27.80;29.90
37678;DHT22;23517;50.390;8.616;2022-07-23T06:37:02;28.60;28.20
37678;DHT22;23517;50.390;8.616;2022-07-23T06:39:30;28.70;28.40
37678;DHT22;23517;50.390;8.616;2022-07-23T06:41:58;28.40;28.60
37678;DHT22;23517;50.390;8.616;2022-07-23T06:44:27;29.90;26.60
37678;DHT22;23517;50.390;8.616;2022-07-23T06:46:54;31.60;23.20
37678;DHT22;23517;50.390;8.616;2022-07-23T06:49:20;32.50;22.10
37678;DHT22;23517;50.390;8.616;2022-07-23T06:51:48;32.90;20.70
37678;DHT22;23517;50.390;8.616;2022-07-23T06:54:15;31.50;21.80
37678;DHT22;23517;50.390;8.616;2022-07-23T06:56:42;31.10;22.70
37678;DHT22;23517;50.390;8.616;2022-07-23T07:01:37;29.00;25.70
37678;DHT22;23517;50.390;8.616;2022-07-23T07:04:04;29.30;25.70
37678;DHT22;23517;50.390;8.616;2022-07-23T07:06:30;30.30;24.80
37678;DHT22;23517;50.390;8.616;2022-07-23T07:08:57;30.80;23.40
37678;DHT22;23517;50.390;8.616;2022-07-23T07:11:24;29.20;26.00
37678;DHT22;23517;50.390;8.616;2022-07-23T07:13:52;29.50;24.80
37678;DHT22;23517;50.390;8.616;2022-07-23T07:16:19;29.30;25.60
37678;DHT22;23517;50.390;8.616;2022-07-23T07:18:46;29.30;25.70
37678;DHT22;23517;50.390;8.616;2022-07-23T07:21:12;29.80;23.80
37678;DHT22;23517;50.390;8.616;2022-07-23T07:23:39;29.60;24.20
37678;DHT22;23517;50.390;8.616;2022-07-23T07:26:06;29.30;25.10
37678;DHT22;23517;50.390;8.616;2022-07-23T07:28:33;28.20;26.30
37678;DHT22;23517;50.390;8.616;2022-07-23T07:30:59;27.20;28.00
37678;DHT22;23517;50.390;8.616;2022-07-23T07:33:26;26.50;29.90
37678;DHT22;23517;50.390;8.616;2022-07-23T07:35:53;25.90;30.80
37678;DHT22;23517;50.390;8.616;2022-07-23T07:38:20;25.70;31.20
37678;DHT22;23517;50.390;8.616;2022-07-23T07:40:46;25.40;32.30
37678;DHT22;23517;50.390;8.616;2022-07-23T07:43:14;25.50;31.80
37678;DHT22;23517;50.390;8.616;2022-07-23T07:45:41;25.20;31.80
37678;DHT22;23517;50.390;8.616;2022-07-23T07:48:08;25.20;32.00
37678;DHT22;23517;50.390;8.616;2022-07-23T07:50:34;24.60;33.90
37678;DHT22;23517;50.390;8.616;2022-07-23T07:53:01;24.40;34.00
37678;DHT22;23517;50.390;8.616;2022-07-23T07:55:28;24.70;34.20
37678;DHT22;23517;50.390;8.616;2022-07-23T07:57:55;24.90;33.90
37678;DHT22;23517;50.390;8.616;2022-07-23T08:00:22;25.30;33.40
37678;DHT22;23517;50.390;8.616;2022-07-23T08:02:51;25.70;31.70
37678;DHT22;23517;50.390;8.616;2022-07-23T08:05:20;26.90;30.70
37678;DHT22;23517;50.390;8.616;2022-07-23T08:07:54;28.60;28.00
37678;DHT22;23517;50.390;8.616;2022-07-23T08:10:23;30.80;24.70
37678;DHT22;23517;50.390;8.616;2022-07-23T08:12:52;31.80;22.10
37678;DHT22;23517;50.390;8.616;2022-07-23T08:15:24;32.30;21.10
37678;DHT22;23517;50.390;8.616;2022-07-23T08:17:52;32.20;20.40
37678;DHT22;23517;50.390;8.616;2022-07-23T08:20:21;32.60;20.00
37678;DHT22;23517;50.390;8.616;2022-07-23T08:22:56;33.50;20.20
37678;DHT22;23517;50.390;8.616;2022-07-23T08:25:31;33.70;19.00
37678;DHT22;23517;50.390;8.616;2022-07-23T08:30:39;35.60;16.50
37678;DHT22;23517;50.390;8.616;2022-07-23T08:33:09;36.20;15.70
37678;DHT22;23517;50.390;8.616;2022-07-23T08:35:58;36.10;15.50
37678;DHT22;23517;50.390;8.616;2022-07-23T08:38:25;36.70;15.20
37678;DHT22;23517;50.390;8.616;2022-07-23T08:40:53;37.80;14.00
37678;DHT22;23517;50.390;8.616;2022-07-23T08:43:24;37.30;14.50
37678;DHT22;23517;50.390;8.616;2022-07-23T08:45:53;36.60;15.50
37678;DHT22;23517;50.390;8.616;2022-07-23T08:48:25;36.80;15.30
37678;DHT22;23517;50.390;8.616;2022-07-23T08:50:58;37.20;14.70
37678;DHT22;23517;50.390;8.616;2022-07-23T08:53:29;37.40;14.30
37678;DHT22;23517;50.390;8.616;2022-07-23T08:55:59;36.50;14.30
37678;DHT22;23517;50.390;8.616;2022-07-23T08:58:28;35.40;14.40
37678;DHT22;23517;50.390;8.616;2022-07-23T09:00:56;34.70;14.80
37678;DHT22;23517;50.390;8.616;2022-07-23T09:03:32;33.90;15.90
37678;DHT22;23517;50.390;8.616;2022-07-23T09:06:06;34.80;15.10
37678;DHT22;23517;50.390;8.616;2022-07-23T09:08:38;34.90;15.60
37678;DHT22;23517;50.390;8.616;2022-07-23T09:11:16;35.10;15.80
37678;DHT22;23517;50.390;8.616;2022-07-23T09:13:53;36.40;15.10
37678;DHT22;23517;50.390;8.616;2022-07-23T09:16:28;36.40;14.10
37678;DHT22;23517;50.390;8.616;2022-07-23T09:19:01;35.10;15.50
37678;DHT22;23517;50.390;8.616;2022-07-23T09:21:38;35.10;15.60
37678;DHT22;23517;50.390;8.616;2022-07-23T09:24:06;36.10;15.00
37678;DHT22;23517;50.390;8.616;2022-07-23T09:29:24;35.60;15.20
37678;DHT22;23517;50.390;8.616;2022-07-23T09:32:02;35.30;15.10
37678;DHT22;23517;50.390;8.616;2022-07-23T09:34:33;36.00;15.00
37678;DHT22;23517;50.390;8.616;2022-07-23T09:37:12;36.50;14.50
37678;DHT22;23517;50.390;8.616;2022-07-23T09:39:41;36.80;14.50
37678;DHT22;23517;50.390;8.616;2022-07-23T09:42:23;36.30;14.80
37678;DHT22;23517;50.390;8.616;2022-07-23T09:44:56;36.60;14.80
37678;DHT22;23517;50.390;8.616;2022-07-23T09:47:26;36.70;14.50
37678;DHT22;23517;50.390;8.616;2022-07-23T09:50:09;36.90;14.10
37678;DHT22;23517;50.390;8.616;2022-07-23T09:52:47;36.50;14.20
37678;DHT22;23517;50.390;8.616;2022-07-23T09:55:18;36.00;15.20
37678;DHT22;23517;50.390;8.616;2022-07-23T09:57:46;36.60;14.90
37678;DHT22;23517;50.390;8.616;2022-07-23T10:00:24;36.70;14.50
37678;DHT22;23517;50.390;8.616;2022-07-23T10:02:51;36.80;14.10
37678;DHT22;23517;50.390;8.616;2022-07-23T10:05:19;36.30;14.50
37678;DHT22;23517;50.390;8.616;2022-07-23T10:07:48;36.10;14.40
37678;DHT22;23517;50.390;8.616;2022-07-23T10:10:21;35.50;14.40
37678;DHT22;23517;50.390;8.616;2022-07-23T10:12:49;36.10;14.70
37678;DHT22;23517;50.390;8.616;2022-07-23T10:15:35;35.90;14.40
37678;DHT22;23517;50.390;8.616;2022-07-23T10:18:02;34.70;14.50
37678;DHT22;23517;50.390;8.616;2022-07-23T10:20:29;35.00;15.40
37678;DHT22;23517;50.390;8.616;2022-07-23T10:23:28;36.20;14.10
37678;DHT22;23517;50.390;8.616;2022-07-23T10:26:22;35.50;14.20
37678;DHT22;23517;50.390;8.616;2022-07-23T10:32:01;33.40;16.80
37678;DHT22;23517;50.390;8.616;2022-07-23T10:40:13;29.60;20.00
37678;DHT22;23517;50.390;8.616;2022-07-23T10:42:47;29.50;21.80
37678;DHT22;23517;50.390;8.616;2022-07-23T10:48:18;28.80;23.20
37678;DHT22;23517;50.390;8.616;2022-07-23T10:53:55;28.40;24.00
37678;DHT22;23517;50.390;8.616;2022-07-23T10:59:23;27.50;25.00
37678;DHT22;23517;50.390;8.616;2022-07-23T11:01:50;27.60;25.20
37678;DHT22;23517;50.390;8.616;2022-07-23T11:04:18;27.50;25.70
37678;DHT22;23517;50.390;8.616;2022-07-23T11:09:39;27.60;25.20
37678;DHT22;23517;50.390;8.616;2022-07-23T11:15:04;27.20;26.30
37678;DHT22;23517;50.390;8.616;2022-07-23T11:17:36;27.40;26.30
37678;DHT22;23517;50.390;8.616;2022-07-23T11:22:38;27.40;26.80
37678;DHT22;23517;50.390;8.616;2022-07-23T11:25:06;27.60;26.80
37678;DHT22;23517;50.390;8.616;2022-07-23T11:27:39;27.50;26.90
37678;DHT22;23517;50.390;8.616;2022-07-23T11:30:08;27.50;28.10
37678;DHT22;23517;50.390;8.616;2022-07-23T11:32:39;27.30;28.20
37678;DHT22;23517;50.390;8.616;2022-07-23T11:35:27;27.30;28.10
37678;DHT22;23517;50.390;8.616;2022-07-23T11:40:49;26.60;28.40
37678;DHT22;23517;50.390;8.616;2022-07-23T11:43:18;26.60;28.50
37678;DHT22;23517;50.390;8.616;2022-07-23T11:45:47;26.80;28.30
37678;DHT22;23517;50.390;8.616;2022-07-23T11:48:22;26.90;28.80
37678;DHT22;23517;50.390;8.616;2022-07-23T11:50:54;27.00;28.90
37678;DHT22;23517;50.390;8.616;2022-07-23T11:53:32;27.30;28.60
37678;DHT22;23517;50.390;8.616;2022-07-23T11:56:10;27.60;27.60
37678;DHT22;23517;50.390;8.616;2022-07-23T11:58:38;27.60;26.40
37678;DHT22;23517;50.390;8.616;2022-07-23T12:01:05;27.60;27.50
37678;DHT22;23517;50.390;8.616;2022-07-23T12:03:49;27.70;27.00
37678;DHT22;23517;50.390;8.616;2022-07-23T12:06:19;27.60;26.70
37678;DHT22;23517;50.390;8.616;2022-07-23T12:08:46;27.60;26.40
37678;DHT22;23517;50.390;8.616;2022-07-23T12:11:13;27.80;26.60
37678;DHT22;23517;50.390;8.616;2022-07-23T12:13:40;27.90;26.20
37678;DHT22;23517;50.390;8.616;2022-07-23T12:16:08;27.80;26.40
37678;DHT22;23517;50.390;8.616;2022-07-23T12:18:35;27.50;26.30
37678;DHT22;23517;50.390;8.616;2022-07-23T12:21:04;27.40;26.30
37678;DHT22;23517;50.390;8.616;2022-07-23T12:23:31;27.10;26.50
37678;DHT22;23517;50.390;8.616;2022-07-23T12:26:01;26.90;26.30
37678;DHT22;23517;50.390;8.616;2022-07-23T12:28:31;27.00;27.60
37678;DHT22;23517;50.390;8.616;2022-07-23T12:30:59;27.20;27.60
37678;DHT22;23517;50.390;8.616;2022-07-23T12:33:32;27.20;27.40
37678;DHT22;23517;50.390;8.616;2022-07-23T12:36:03;27.40;27.50
37678;DHT22;23517;50.390;8.616;2022-07-23T12:38:46;27.70;27.10
37678;DHT22;23517;50.390;8.616;2022-07-23T12:41:15;27.80;25.70
37678;DHT22;23517;50.390;8.616;2022-07-23T12:43:44;27.70;27.20
37678;DHT22;23517;50.390;8.616;2022-07-23T12:46:15;27.80;26.90
37678;DHT22;23517;50.390;8.616;2022-07-23T12:48:54;27.90;27.10
37678;DHT22;23517;50.390;8.616;2022-07-23T12:51:26;27.90;26.60
37678;DHT22;23517;50.390;8.616;2022-07-23T12:54:09;27.90;25.90
37678;DHT22;23517;50.390;8.616;2022-07-23T12:56:40;28.00;26.00
37678;DHT22;23517;50.390;8.616;2022-07-23T12:59:15;28.00;27.30
37678;DHT22;23517;50.390;8.616;2022-07-23T13:01:45;28.10;26.90
37678;DHT22;23517;50.390;8.616;2022-07-23T13:04:23;28.30;26.70
37678;DHT22;23517;50.390;8.616;2022-07-23T13:06:56;28.30;26.40
37678;DHT22;23517;50.390;8.616;2022-07-23T13:09:27;28.30;25.70
37678;DHT22;23517;50.390;8.616;2022-07-23T13:12:00;28.40;26.90
37678;DHT22;23517;50.390;8.616;2022-07-23T13:14:27;28.60;25.90
37678;DHT22;23517;50.390;8.616;2022-07-23T13:16:55;28.80;25.10
37678;DHT22;23517;50.390;8.616;2022-07-23T13:19:25;28.80;25.30
37678;DHT22;23517;50.390;8.616;2022-07-23T13:21:53;28.90;24.80
37678;DHT22;23517;50.390;8.616;2022-07-23T13:24:20;28.90;24.40
37678;DHT22;23517;50.390;8.616;2022-07-23T13:26:47;28.80;24.60
37678;DHT22;23517;50.390;8.616;2022-07-23T13:29:16;28.60;24.30
37678;DHT22;23517;50.390;8.616;2022-07-23T13:31:45;28.30;24.70
37678;DHT22;23517;50.390;8.616;2022-07-23T13:34:14;28.20;24.00
37678;DHT22;23517;50.390;8.616;2022-07-23T13:36:41;28.10;24.50
37678;DHT22;23517;50.390;8.616;2022-07-23T13:39:09;28.30;25.10
37678;DHT22;23517;50.390;8.616;2022-07-23T13:41:38;28.20;24.90
37678;DHT22;23517;50.390;8.616;2022-07-23T13:44:05;28.20;25.80
37678;DHT22;23517;50.390;8.616;2022-07-23T13:46:33;28.20;25.60
37678;DHT22;23517;50.390;8.616;2022-07-23T13:49:01;28.30;25.00
37678;DHT22;23517;50.390;8.616;2022-07-23T13:51:29;28.50;24.40
37678;DHT22;23517;50.390;8.616;2022-07-23T13:53:56;28.30;23.90
37678;DHT22;23517;50.390;8.616;2022-07-23T13:56:25;28.30;24.00
37678;DHT22;23517;50.390;8.616;2022-07-23T13:58:52;28.30;23.20
37678;DHT22;23517;50.390;8.616;2022-07-23T14:01:19;28.30;23.60
37678;DHT22;23517;50.390;8.616;2022-07-23T14:03:46;28.20;23.80
37678;DHT22;23517;50.390;8.616;2022-07-23T14:06:13;28.00;23.10
37678;DHT22;23517;50.390;8.616;2022-07-23T14:08:43;28.20;23.40
37678;DHT22;23517;50.390;8.616;2022-07-23T14:11:12;28.50;22.20
37678;DHT22;23517;50.390;8.616;2022-07-23T14:13:39;28.80;21.70
37678;DHT22;23517;50.390;8.616;2022-07-23T14:16:07;28.80;21.30
37678;DHT22;23517;50.390;8.616;2022-07-23T14:18:34;28.90;21.90
37678;DHT22;23517;50.390;8.616;2022-07-23T14:21:01;28.90;21.80
37678;DHT22;23517;50.390;8.616;2022-07-23T14:23:28;28.70;22.20
37678;DHT22;23517;50.390;8.616;2022-07-23T14:25:56;28.80;22.30
37678;DHT22;23517;50.390;8.616;2022-07-23T14:28:23;28.70;22.10
37678;DHT22;23517;50.390;8.616;2022-07-23T14:30:50;28.80;22.60
37678;DHT22;23517;50.390;8.616;2022-07-23T14:33:18;28.90;20.90
37678;DHT22;23517;50.390;8.616;2022-07-23T14:35:46;29.10;20.80
37678;DHT22;23517;50.390;8.616;2022-07-23T14:38:13;29.20;20.50
37678;DHT22;23517;50.390;8.616;2022-07-23T14:40:41;29.00;20.70
37678;DHT22;23517;50.390;8.616;2022-07-23T14:43:10;29.10;20.10
37678;DHT22;23517;50.390;8.616;2022-07-23T14:45:38;29.20;20.20
37678;DHT22;23517;50.390;8.616;2022-07-23T14:48:05;29.50;20.00
37678;DHT22;23517;50.390;8.616;2022-07-23T14:50:34;29.80;19.50
37678;DHT22;23517;50.390;8.616;2022-07-23T14:53:01;30.00;19.80
37678;DHT22;23517;50.390;8.616;2022-07-23T14:55:27;30.20;19.40
37678;DHT22;23517;50.390;8.616;2022-07-23T14:57:54;30.60;19.20
37678;DHT22;23517;50.390;8.616;2022-07-23T15:00:21;30.60;19.00
37678;DHT22;23517;50.390;8.616;2022-07-23T15:02:50;30.30;19.10
37678;DHT22;23517;50.390;8.616;2022-07-23T15:05:22;30.10;19.80
37678;DHT22;23517;50.390;8.616;2022-07-23T15:07:51;29.90;19.30
37678;DHT22;23517;50.390;8.616;2022-07-23T15:10:18;29.70;18.60
37678;DHT22;23517;50.390;8.616;2022-07-23T15:12:48;29.60;18.70
37678;DHT22;23517;50.390;8.616;2022-07-23T15:15:16;29.50;19.60
37678;DHT22;23517;50.390;8.616;2022-07-23T15:20:09;29.10;20.00
37678;DHT22;23517;50.390;8.616;2022-07-23T15:22:36;28.80;20.20
37678;DHT22;23517;50.390;8.616;2022-07-23T15:25:04;28.60;21.00
37678;DHT22;23517;50.390;8.616;2022-07-23T15:27:31;28.60;21.00
37678;DHT22;23517;50.390;8.616;2022-07-23T15:29:58;28.50;21.30
37678;DHT22;23517;50.390;8.616;2022-07-23T15:32:25;28.40;21.20
37678;DHT22;23517;50.390;8.616;2022-07-23T15:34:57;28.30;21.40
37678;DHT22;23517;50.390;8.616;2022-07-23T15:37:24;28.20;22.30
37678;DHT22;23517;50.390;8.616;2022-07-23T15:39:51;28.10;22.00
37678;DHT22;23517;50.390;8.616;2022-07-23T15:42:19;28.10;21.20
37678;DHT22;23517;50.390;8.616;2022-07-23T15:44:46;28.10;21.60
37678;DHT22;23517;50.390;8.616;2022-07-23T15:47:15;28.20;22.20
37678;DHT22;23517;50.390;8.616;2022-07-23T15:49:44;28.30;20.80
37678;DHT22;23517;50.390;8.616;2022-07-23T15:52:12;28.40;20.40
37678;DHT22;23517;50.390;8.616;2022-07-23T15:54:39;28.50;20.10
37678;DHT22;23517;50.390;8.616;2022-07-23T15:57:07;28.60;19.90
37678;DHT22;23517;50.390;8.616;2022-07-23T15:59:34;28.60;19.80
37678;DHT22;23517;50.390;8.616;2022-07-23T16:02:02;28.60;19.70
37678;DHT22;23517;50.390;8.616;2022-07-23T16:04:29;28.40;20.50
37678;DHT22;23517;50.390;8.616;2022-07-23T16:06:57;28.30;20.90
37678;DHT22;23517;50.390;8.616;2022-07-23T16:09:24;28.30;21.20
37678;DHT22;23517;50.390;8.616;2022-07-23T16:11:51;28.20;21.00
37678;DHT22;23517;50.390;8.616;2022-07-23T16:14:19;28.10;21.90
37678;DHT22;23517;50.390;8.616;2022-07-23T16:16:46;28.10;21.60
37678;DHT22;23517;50.390;8.616;2022-07-23T16:19:15;28.10;21.60
37678;DHT22;23517;50.390;8.616;2022-07-23T16:21:43;28.20;21.50